createdAt,value
2023-05-07T00:00:45.700Z,78.71
2023-05-07T00:03:14.807Z,78.72
2023-05-07T00:05:42.471Z,78.36
2023-05-07T00:08:11.700Z,78.73
2023-05-07T00:10:39.174Z,78.97
2023-05-07T00:13:06.762Z,78.99
2023-05-07T00:15:34.277Z,78.87
2023-05-07T00:18:01.791Z,78.85
2023-05-07T00:20:29.276Z,78.85
2023-05-07T00:22:56.787Z,78.53
2023-05-07T00:25:25.762Z,78.97
2023-05-07T00:27:53.255Z,78.87
2023-05-07T00:30:21.008Z,78.98
2023-05-07T00:32:49.946Z,78.45
2023-05-07T00:35:17.530Z,78.39
2023-05-07T00:37:45.240Z,78.68
2023-05-07T00:40:13.033Z,78.56
2023-05-07T00:42:42.003Z,78.26
2023-05-07T00:45:11.800Z,78.30
2023-05-07T00:47:39.367Z,78.37
2023-05-07T00:50:08.295Z,78.54
2023-05-07T00:52:36.332Z,78.36
2023-05-07T00:55:07.475Z,79.22
2023-05-07T00:57:35.533Z,79.12
2023-05-07T01:00:05.969Z,78.41
2023-05-07T01:02:33.518Z,78.20
2023-05-07T01:05:02.434Z,78.89
2023-05-07T01:07:30.732Z,78.60
2023-05-07T01:09:58.691Z,78.01
2023-05-07T01:12:26.867Z,78.41
2023-05-07T01:14:54.384Z,78.30
2023-05-07T01:17:23.558Z,78.59
2023-05-07T01:19:52.103Z,78.27
2023-05-07T01:22:29.908Z,78.21
2023-05-07T01:24:57.398Z,78.51
2023-05-07T01:27:26.402Z,78.65
2023-05-07T01:29:54.041Z,79.40
2023-05-07T01:32:25.294Z,78.69
2023-05-07T01:34:53.163Z,78.53
2023-05-07T01:37:20.834Z,78.34
2023-05-07T01:39:50.058Z,78.78
2023-05-07T01:42:18.583Z,78.56
2023-05-07T01:44:46.324Z,78.81
2023-05-07T01:47:14.358Z,79.90
2023-05-07T01:49:42.008Z,79.56
2023-05-07T01:52:09.839Z,79.82
2023-05-07T01:54:37.554Z,79.55
2023-05-07T01:57:07.184Z,79.21
2023-05-07T01:59:35.202Z,78.88
2023-05-07T02:02:03.216Z,78.79
2023-05-07T02:04:32.492Z,79.22
2023-05-07T02:07:00.217Z,79.40
2023-05-07T02:09:27.942Z,78.96
2023-05-07T02:11:56.087Z,79.02
2023-05-07T02:14:27.027Z,78.99
2023-05-07T02:16:54.616Z,79.15
2023-05-07T02:19:22.223Z,78.91
2023-05-07T02:21:50.053Z,79.03
2023-05-07T02:24:17.569Z,78.99
2023-05-07T02:26:45.141Z,78.85
2023-05-07T02:29:12.657Z,78.88
2023-05-07T02:31:42.144Z,79.30
2023-05-07T02:34:09.679Z,79.52
2023-05-07T02:36:37.456Z,79.54
2023-05-07T02:39:10.560Z,79.78
2023-05-07T02:41:38.050Z,79.34
2023-05-07T02:44:05.890Z,79.82
2023-05-07T02:46:34.274Z,80.39
2023-05-07T02:49:07.761Z,79.80
2023-05-07T02:51:35.619Z,79.67
2023-05-07T02:54:06.517Z,79.85
2023-05-07T02:56:34.085Z,79.70
2023-05-07T02:59:01.563Z,80.04
2023-05-07T03:01:33.913Z,79.91
2023-05-07T03:04:09.314Z,79.90
2023-05-07T03:06:36.867Z,80.19
2023-05-07T03:09:04.889Z,80.43
2023-05-07T03:11:32.517Z,79.75
2023-05-07T03:14:00.031Z,79.93
2023-05-07T03:16:27.796Z,79.79
2023-05-07T03:18:55.401Z,79.69
2023-05-07T03:21:24.258Z,79.84
2023-05-07T03:23:51.838Z,79.58
2023-05-07T03:26:19.438Z,79.55
2023-05-07T03:28:46.923Z,79.42
2023-05-07T03:31:17.360Z,79.55
2023-05-07T03:33:52.762Z,79.45
2023-05-07T03:36:20.488Z,79.69
2023-05-07T03:38:49.900Z,79.94
2023-05-07T03:41:21.270Z,79.73
2023-05-07T03:43:48.767Z,80.16
2023-05-07T03:46:16.759Z,79.92
2023-05-07T03:48:44.594Z,79.80
2023-05-07T03:51:14.292Z,79.80
2023-05-07T03:53:41.782Z,80.15
2023-05-07T03:56:11.135Z,79.77
2023-05-07T03:58:41.056Z,79.64
2023-05-07T04:01:11.290Z,79.96
2023-05-07T04:03:38.964Z,79.74
2023-05-07T04:06:06.881Z,79.78
2023-05-07T04:08:36.156Z,79.74
2023-05-07T04:11:05.149Z,79.31
2023-05-07T04:13:35.688Z,79.42
2023-05-07T04:16:05.899Z,79.28
2023-05-07T04:18:35.939Z,79.28
2023-05-07T04:21:03.491Z,79.51
2023-05-07T04:23:31.689Z,79.16
2023-05-07T04:26:04.215Z,79.54
2023-05-07T04:28:38.375Z,79.10
2023-05-07T04:31:05.949Z,79.26
2023-05-07T04:33:35.337Z,78.91
2023-05-07T04:36:04.344Z,78.75
2023-05-07T04:38:35.586Z,78.79
2023-05-07T04:41:08.206Z,78.81
2023-05-07T04:43:42.713Z,79.22
2023-05-07T04:46:11.651Z,78.72
2023-05-07T04:48:39.229Z,78.29
2023-05-07T04:51:07.713Z,78.44
2023-05-07T04:53:35.405Z,78.59
2023-05-07T04:56:03.226Z,78.26
2023-05-07T04:58:40.151Z,78.29
2023-05-07T05:01:09.345Z,78.31
2023-05-07T05:03:37.056Z,78.46
2023-05-07T05:06:05.022Z,79.14
2023-05-07T05:08:35.099Z,78.69
2023-05-07T05:11:04.559Z,78.79
2023-05-07T05:13:34.561Z,78.84
2023-05-07T05:16:08.717Z,78.96
2023-05-07T05:18:36.944Z,78.67
2023-05-07T05:21:04.848Z,78.67
2023-05-07T05:23:33.489Z,78.38
2023-05-07T05:26:01.030Z,78.33
2023-05-07T05:28:32.359Z,77.83
2023-05-07T05:30:59.869Z,77.67
2023-05-07T05:33:31.744Z,77.35
2023-05-07T05:36:04.501Z,77.60
2023-05-07T05:38:32.220Z,77.66
2023-05-07T05:40:59.938Z,77.38
2023-05-07T05:43:27.674Z,77.72
2023-05-07T05:45:55.317Z,77.69
2023-05-07T05:48:23.655Z,77.66
2023-05-07T05:50:52.498Z,77.77
2023-05-07T05:53:20.720Z,78.03
2023-05-07T05:55:48.406Z,78.02
2023-05-07T05:58:17.024Z,77.76
2023-05-07T06:00:53.222Z,77.50
2023-05-07T06:03:23.519Z,77.51
2023-05-07T06:05:52.893Z,77.24
2023-05-07T06:08:22.729Z,77.99
2023-05-07T06:10:50.287Z,78.01
2023-05-07T06:13:18.259Z,77.57
2023-05-07T06:15:45.946Z,77.08
2023-05-07T06:18:14.700Z,76.69
2023-05-07T06:20:43.015Z,76.95
2023-05-07T06:23:19.213Z,76.77
2023-05-07T06:25:50.399Z,76.56
2023-05-07T06:28:19.417Z,76.77
2023-05-07T06:30:47.583Z,76.46
2023-05-07T06:33:15.981Z,76.13
2023-05-07T06:35:43.521Z,76.56
2023-05-07T06:38:11.585Z,76.41
2023-05-07T06:40:40.483Z,76.06
2023-05-07T06:43:08.024Z,76.32
2023-05-07T06:45:43.884Z,75.80
2023-05-07T06:48:12.863Z,76.19
2023-05-07T06:51:01.914Z,75.39
2023-05-07T06:53:31.648Z,75.30
2023-05-07T06:56:02.523Z,75.31
2023-05-07T06:58:30.049Z,75.33
2023-05-07T07:00:57.690Z,74.98
2023-05-07T07:03:25.277Z,75.11
2023-05-07T07:05:53.695Z,74.99
2023-05-07T07:08:22.183Z,74.54
2023-05-07T07:10:50.361Z,73.99
2023-05-07T07:13:20.214Z,74.15
2023-05-07T07:15:47.891Z,73.74
2023-05-07T07:18:15.447Z,73.48
2023-05-07T07:20:45.552Z,73.40
2023-05-07T07:23:13.165Z,73.97
2023-05-07T07:25:40.739Z,74.04
2023-05-07T07:28:08.660Z,74.03
2023-05-07T07:30:40.717Z,73.96
2023-05-07T07:33:08.225Z,73.70
2023-05-07T07:35:38.140Z,73.40
2023-05-07T07:38:07.033Z,73.43
2023-05-07T07:40:36.813Z,73.71
2023-05-07T07:43:05.952Z,73.55
2023-05-07T07:45:33.625Z,73.09
2023-05-07T07:48:03.502Z,72.84
2023-05-07T07:50:44.493Z,72.56
2023-05-07T07:53:15.521Z,72.52
2023-05-07T07:55:43.733Z,72.35
2023-05-07T07:58:14.380Z,72.28
2023-05-07T08:00:42.440Z,72.43
2023-05-07T08:03:12.756Z,71.72
2023-05-07T08:05:44.615Z,71.26
2023-05-07T08:08:12.146Z,71.41
2023-05-07T08:10:41.173Z,71.05
2023-05-07T08:13:16.316Z,70.66
2023-05-07T08:15:44.237Z,70.61
2023-05-07T08:18:14.507Z,70.75
2023-05-07T08:20:43.462Z,70.66
2023-05-07T08:23:16.069Z,70.49
2023-05-07T08:25:44.817Z,70.51
2023-05-07T08:28:12.722Z,70.22
2023-05-07T08:30:42.825Z,69.83
2023-05-07T08:33:11.475Z,69.45
2023-05-07T08:35:40.707Z,69.59
2023-05-07T08:38:09.825Z,69.58
2023-05-07T08:40:39.649Z,68.97
2023-05-07T08:43:13.972Z,68.92
2023-05-07T08:45:42.455Z,68.51
2023-05-07T08:48:17.628Z,68.54
2023-05-07T08:50:51.448Z,68.64
2023-05-07T08:53:19.612Z,68.19
2023-05-07T08:55:48.168Z,67.42
2023-05-07T08:58:16.430Z,67.39
2023-05-07T09:00:44.661Z,67.29
2023-05-07T09:03:16.722Z,66.65
2023-05-07T09:05:48.114Z,66.90
2023-05-07T09:08:19.915Z,66.53
2023-05-07T09:10:50.164Z,66.64
2023-05-07T09:13:19.307Z,66.82
2023-05-07T09:15:47.514Z,67.22
2023-05-07T09:18:16.724Z,67.36
2023-05-07T09:20:45.805Z,66.94
2023-05-07T09:23:13.377Z,66.48
2023-05-07T09:25:42.523Z,66.28
2023-05-07T09:28:16.658Z,66.07
2023-05-07T09:30:44.211Z,65.99
2023-05-07T09:33:14.097Z,65.80
2023-05-07T09:35:45.767Z,65.55
2023-05-07T09:38:19.765Z,65.07
2023-05-07T09:41:03.608Z,64.40
2023-05-07T09:43:36.751Z,64.41
2023-05-07T09:46:09.316Z,64.09
2023-05-07T09:48:40.472Z,63.89
2023-05-07T09:51:17.885Z,63.85
2023-05-07T09:53:47.120Z,63.63
2023-05-07T09:56:17.481Z,62.97
2023-05-07T09:58:45.615Z,62.95
2023-05-07T10:01:15.807Z,62.44
2023-05-07T10:03:45.800Z,62.36
2023-05-07T10:06:14.097Z,62.57
2023-05-07T10:08:42.204Z,62.67
2023-05-07T10:11:10.592Z,62.72
2023-05-07T10:13:39.543Z,62.54
2023-05-07T10:16:09.961Z,62.06
2023-05-07T10:18:44.203Z,62.00
2023-05-07T10:21:19.458Z,61.93
2023-05-07T10:23:52.294Z,61.68
2023-05-07T10:26:22.864Z,61.30
2023-05-07T10:28:55.772Z,61.69
2023-05-07T10:31:39.621Z,61.90
2023-05-07T10:34:10.502Z,61.71
2023-05-07T10:36:38.600Z,60.65
2023-05-07T10:39:07.526Z,61.03
2023-05-07T10:41:35.044Z,60.73
2023-05-07T10:44:04.612Z,60.82
2023-05-07T10:46:36.471Z,60.84
2023-05-07T10:49:12.434Z,60.87
2023-05-07T10:51:47.976Z,60.84
2023-05-07T10:54:25.762Z,60.73
2023-05-07T10:57:34.804Z,60.82
2023-05-07T11:00:43.344Z,60.44
2023-05-07T11:03:15.989Z,59.94
2023-05-07T11:06:11.095Z,59.61
2023-05-07T11:08:56.504Z,58.58
2023-05-07T11:11:47.838Z,58.07
2023-05-07T11:14:47.617Z,57.44
2023-05-07T11:17:35.712Z,56.94
2023-05-07T11:20:08.556Z,56.33
2023-05-07T11:22:49.828Z,55.80
2023-05-07T11:25:32.337Z,55.42
2023-05-07T11:28:11.234Z,54.81
2023-05-07T11:30:43.845Z,55.06
2023-05-07T11:33:19.038Z,54.80
2023-05-07T11:35:47.631Z,53.99
2023-05-07T11:38:17.842Z,54.15
2023-05-07T11:40:52.459Z,53.87
2023-05-07T11:43:20.188Z,53.61
2023-05-07T11:45:48.316Z,52.78
2023-05-07T11:48:18.226Z,52.60
2023-05-07T11:50:53.486Z,52.21
2023-05-07T11:53:21.723Z,52.29
2023-05-07T11:55:49.247Z,51.40
2023-05-07T11:58:23.472Z,51.15
2023-05-07T12:00:51.512Z,49.67
2023-05-07T12:03:20.894Z,50.20
2023-05-07T12:05:50.128Z,50.03
2023-05-07T12:08:17.853Z,50.37
2023-05-07T12:10:46.155Z,49.65
2023-05-07T12:13:17.488Z,49.77
2023-05-07T12:15:45.399Z,49.97
2023-05-07T12:18:13.612Z,49.91
2023-05-07T12:20:42.653Z,50.16
2023-05-07T12:23:10.227Z,49.96
2023-05-07T12:25:38.048Z,50.50
2023-05-07T12:28:06.159Z,50.72
2023-05-07T12:30:33.924Z,50.93
2023-05-07T12:33:01.705Z,50.80
2023-05-07T12:35:29.763Z,50.00
2023-05-07T12:38:00.792Z,50.31
2023-05-07T12:40:37.624Z,50.26
2023-05-07T12:43:05.477Z,50.41
2023-05-07T12:45:32.981Z,50.56
2023-05-07T12:48:03.753Z,51.10
2023-05-07T12:50:33.495Z,51.10
2023-05-07T12:53:04.285Z,50.31
2023-05-07T12:55:34.787Z,50.37
2023-05-07T12:58:03.393Z,49.86
2023-05-07T13:00:38.322Z,50.02
2023-05-07T13:03:06.377Z,49.94
2023-05-07T13:05:34.555Z,49.72
2023-05-07T13:08:03.538Z,49.63
2023-05-07T13:10:31.033Z,49.60
2023-05-07T13:12:58.618Z,49.43
2023-05-07T13:15:28.008Z,49.13
2023-05-07T13:17:56.265Z,49.28
2023-05-07T13:20:24.305Z,49.58
2023-05-07T13:22:51.821Z,49.93
2023-05-07T13:25:21.024Z,49.36
2023-05-07T13:27:56.508Z,49.70
2023-05-07T13:30:30.690Z,50.28
2023-05-07T13:32:58.340Z,50.19
2023-05-07T13:35:25.999Z,50.43
2023-05-07T13:37:55.532Z,49.64
2023-05-07T13:40:24.899Z,49.37
2023-05-07T13:42:52.921Z,49.81
2023-05-07T13:45:20.695Z,49.50
2023-05-07T13:47:50.450Z,49.68
2023-05-07T13:50:18.285Z,49.60
2023-05-07T13:52:51.371Z,49.55
2023-05-07T13:55:19.598Z,49.83
2023-05-07T13:57:48.883Z,49.72
2023-05-07T14:00:17.336Z,50.62
2023-05-07T14:02:45.017Z,50.80
2023-05-07T14:05:14.425Z,50.93
2023-05-07T14:07:41.991Z,50.94
2023-05-07T14:10:10.896Z,51.53
2023-05-07T14:12:38.899Z,51.19
2023-05-07T14:15:08.895Z,51.32
2023-05-07T14:17:36.866Z,52.73
2023-05-07T14:20:05.302Z,52.73
2023-05-07T14:22:32.832Z,52.69
2023-05-07T14:25:06.755Z,52.83
2023-05-07T14:27:34.842Z,52.52
2023-05-07T14:30:02.362Z,52.28
2023-05-07T14:32:31.264Z,52.89
2023-05-07T14:34:58.801Z,52.89
2023-05-07T14:37:26.405Z,52.88
2023-05-07T14:39:53.921Z,52.96
2023-05-07T14:42:21.384Z,53.70
2023-05-07T14:44:49.387Z,53.75
2023-05-07T14:47:19.053Z,53.42
2023-05-07T14:49:48.694Z,53.15
2023-05-07T14:52:16.312Z,53.01
2023-05-07T14:54:43.809Z,53.30
2023-05-07T14:57:14.250Z,53.55
2023-05-07T14:59:42.453Z,53.91
2023-05-07T15:02:10.873Z,54.25
2023-05-07T15:04:39.196Z,54.22
2023-05-07T15:07:08.034Z,54.60
2023-05-07T15:09:35.553Z,54.90
2023-05-07T15:12:03.218Z,55.11
2023-05-07T15:14:30.730Z,55.26
2023-05-07T15:16:58.222Z,56.04
2023-05-07T15:19:29.817Z,55.85
2023-05-07T15:21:57.774Z,55.80
2023-05-07T15:24:26.624Z,55.70
2023-05-07T15:26:54.268Z,55.09
2023-05-07T15:29:21.810Z,55.21
2023-05-07T15:31:49.408Z,54.97
2023-05-07T15:34:17.548Z,54.52
2023-05-07T15:36:45.068Z,54.44
2023-05-07T15:39:12.586Z,54.86
2023-05-07T15:41:41.472Z,55.31
2023-05-07T15:44:09.112Z,54.86
2023-05-07T15:46:36.603Z,55.12
2023-05-07T15:49:05.079Z,55.15
2023-05-07T15:51:32.789Z,55.55
2023-05-07T15:54:00.386Z,55.54
2023-05-07T15:56:27.931Z,55.62
2023-05-07T15:58:57.613Z,55.46
2023-05-07T16:01:26.069Z,55.57
2023-05-07T16:03:53.819Z,55.43
2023-05-07T16:06:21.636Z,56.23
2023-05-07T16:08:49.152Z,56.11
2023-05-07T16:11:16.684Z,55.73
2023-05-07T16:13:44.187Z,55.58
2023-05-07T16:16:13.352Z,55.91
2023-05-07T16:18:40.960Z,56.21
2023-05-07T16:21:08.437Z,56.40
2023-05-07T16:23:36.394Z,56.42
2023-05-07T16:26:04.935Z,56.65
2023-05-07T16:28:32.510Z,57.01
2023-05-07T16:31:00.094Z,57.39
2023-05-07T16:33:29.014Z,57.42
2023-05-07T16:35:56.480Z,57.70
2023-05-07T16:38:24.044Z,57.38
2023-05-07T16:40:51.539Z,57.70
2023-05-07T16:43:19.146Z,57.66
2023-05-07T16:45:46.942Z,57.79
2023-05-07T16:48:14.560Z,57.63
2023-05-07T16:50:44.419Z,57.86
2023-05-07T16:53:12.343Z,57.69
2023-05-07T16:55:40.294Z,58.00
2023-05-07T16:58:09.087Z,57.94
2023-05-07T17:00:49.184Z,58.25
2023-05-07T17:03:18.255Z,58.25
2023-05-07T17:05:47.460Z,58.25
2023-05-07T17:08:15.162Z,58.49
2023-05-07T17:10:42.924Z,58.45
2023-05-07T17:13:10.459Z,58.84
2023-05-07T17:15:37.978Z,59.07
2023-05-07T17:18:05.726Z,59.01
2023-05-07T17:20:33.250Z,59.14
2023-05-07T17:23:02.077Z,58.87
2023-05-07T17:25:29.562Z,58.63
2023-05-07T17:27:57.046Z,58.64
2023-05-07T17:30:24.740Z,59.17
2023-05-07T17:32:52.283Z,59.45
2023-05-07T17:35:19.845Z,59.91
2023-05-07T17:37:52.432Z,60.40
2023-05-07T17:40:22.302Z,60.70
2023-05-07T17:42:50.138Z,60.57
2023-05-07T17:45:18.091Z,60.67
2023-05-07T17:47:45.583Z,60.78
2023-05-07T17:50:14.573Z,61.34
2023-05-07T17:52:42.659Z,61.58
2023-05-07T17:55:10.624Z,61.69
2023-05-07T17:57:39.677Z,61.63
2023-05-07T18:00:10.031Z,61.97
2023-05-07T18:02:38.108Z,62.00
2023-05-07T18:05:06.387Z,62.09
2023-05-07T18:07:33.933Z,62.22
2023-05-07T18:10:01.572Z,62.10
2023-05-07T18:12:29.042Z,62.92
2023-05-07T18:14:58.170Z,63.35
2023-05-07T18:17:26.771Z,62.92
2023-05-07T18:19:55.342Z,63.02
2023-05-07T18:22:24.071Z,63.62
2023-05-07T18:24:51.673Z,63.47
2023-05-07T18:27:19.211Z,63.61
2023-05-07T18:29:46.751Z,64.09
2023-05-07T18:32:15.708Z,64.05
2023-05-07T18:34:43.278Z,64.05
2023-05-07T18:37:10.897Z,64.24
2023-05-07T18:39:38.453Z,64.19
2023-05-07T18:42:06.692Z,64.90
2023-05-07T18:44:37.482Z,64.94
2023-05-07T18:47:05.134Z,65.27
2023-05-07T18:49:33.998Z,64.75
2023-05-07T18:52:01.588Z,65.15
2023-05-07T18:54:29.159Z,64.73
2023-05-07T18:56:56.653Z,64.54
2023-05-07T18:59:24.151Z,64.35
2023-05-07T19:01:51.989Z,64.35
2023-05-07T19:04:20.256Z,64.16
2023-05-07T19:06:49.185Z,64.21
2023-05-07T19:09:16.702Z,64.34
2023-05-07T19:11:44.291Z,64.11
2023-05-07T19:14:11.800Z,63.85
2023-05-07T19:16:39.459Z,64.32
2023-05-07T19:19:06.993Z,64.28
2023-05-07T19:21:34.580Z,64.46
2023-05-07T19:24:03.379Z,64.22
2023-05-07T19:26:30.947Z,64.10
2023-05-07T19:31:29.017Z,64.80
2023-05-07T19:33:57.367Z,65.46
2023-05-07T19:36:25.088Z,65.61
2023-05-07T19:38:53.764Z,65.55
2023-05-07T19:41:22.930Z,65.46
2023-05-07T19:43:50.607Z,65.65
2023-05-07T19:46:18.528Z,65.46
2023-05-07T19:48:46.402Z,66.47
2023-05-07T19:51:14.103Z,66.85
2023-05-07T19:53:41.638Z,67.08
2023-05-07T19:56:10.747Z,66.47
2023-05-07T19:58:39.937Z,67.57
2023-05-07T20:01:07.595Z,68.22
2023-05-07T20:03:35.760Z,68.38
2023-05-07T20:06:04.240Z,68.87
2023-05-07T20:08:31.776Z,68.34
2023-05-07T20:10:59.900Z,69.36
2023-05-07T20:13:27.897Z,69.58
2023-05-07T20:15:59.493Z,68.92
2023-05-07T20:18:29.062Z,68.89
2023-05-07T20:20:56.948Z,69.39
2023-05-07T20:23:24.754Z,69.56
2023-05-07T20:25:52.501Z,70.18
2023-05-07T20:28:20.037Z,70.17
2023-05-07T20:30:47.606Z,69.78
2023-05-07T20:33:16.722Z,69.71
2023-05-07T20:35:44.196Z,70.27
2023-05-07T20:38:11.779Z,70.42
2023-05-07T20:40:39.388Z,69.43
2023-05-07T20:43:07.153Z,68.95
2023-05-07T20:45:34.832Z,68.40
2023-05-07T20:48:02.422Z,68.44
2023-05-07T20:50:32.196Z,68.21
2023-05-07T20:52:59.729Z,68.35
2023-05-07T20:55:27.259Z,69.02
2023-05-07T20:57:54.761Z,68.81
2023-05-07T21:00:22.457Z,68.87
2023-05-07T21:02:49.972Z,70.34
2023-05-07T21:05:17.470Z,69.88
2023-05-07T21:07:46.295Z,69.68
2023-05-07T21:10:13.924Z,70.49
2023-05-07T21:12:41.628Z,69.84
2023-05-07T21:15:10.754Z,70.11
2023-05-07T21:17:38.304Z,69.92
2023-05-07T21:20:07.189Z,69.80
2023-05-07T21:22:34.863Z,70.27
2023-05-07T21:25:03.732Z,70.32
2023-05-07T21:27:31.241Z,70.80
2023-05-07T21:30:03.530Z,70.44
2023-05-07T21:32:31.083Z,70.58
2023-05-07T21:34:59.950Z,72.15
2023-05-07T21:37:30.128Z,72.49
2023-05-07T21:39:57.662Z,73.76
2023-05-07T21:42:27.697Z,74.16
2023-05-07T21:44:55.198Z,73.95
2023-05-07T21:47:22.740Z,74.28
2023-05-07T21:49:50.316Z,73.93
2023-05-07T21:52:18.474Z,74.19
2023-05-07T21:54:46.066Z,72.91
2023-05-07T21:57:13.730Z,72.70
2023-05-07T21:59:42.520Z,73.12
2023-05-07T22:02:09.986Z,73.23
2023-05-07T22:04:37.471Z,72.61
2023-05-07T22:07:04.972Z,72.87
2023-05-07T22:09:32.446Z,72.66
2023-05-07T22:12:00.151Z,72.01
2023-05-07T22:14:27.618Z,72.07
2023-05-07T22:16:56.592Z,71.42
2023-05-07T22:19:24.197Z,71.42
2023-05-07T22:21:51.719Z,71.18
2023-05-07T22:24:19.259Z,71.37
2023-05-07T22:26:47.100Z,71.17
2023-05-07T22:29:14.635Z,71.25
2023-05-07T22:31:42.291Z,71.34
2023-05-07T22:34:11.094Z,71.87
2023-05-07T22:36:38.775Z,72.17
2023-05-07T22:39:08.091Z,72.81
2023-05-07T22:41:35.646Z,72.68
2023-05-07T22:44:03.280Z,73.08
2023-05-07T22:46:30.969Z,72.49
2023-05-07T22:48:58.529Z,72.59
2023-05-07T22:51:27.371Z,73.32
2023-05-07T22:53:55.077Z,73.83
2023-05-07T22:56:22.824Z,74.21
2023-05-07T22:58:50.526Z,74.60
2023-05-07T23:01:19.470Z,74.98
2023-05-07T23:03:47.040Z,74.75
2023-05-07T23:06:14.575Z,75.36
2023-05-07T23:08:43.416Z,76.06
2023-05-07T23:11:10.926Z,76.70
2023-05-07T23:13:38.393Z,75.32
2023-05-07T23:16:06.659Z,75.52
2023-05-07T23:18:34.206Z,74.36
2023-05-07T23:21:01.898Z,74.16
2023-05-07T23:23:33.685Z,74.87
2023-05-07T23:26:02.585Z,75.47
2023-05-07T23:28:30.168Z,75.24
2023-05-07T23:30:57.782Z,76.23
2023-05-07T23:33:25.362Z,75.62
2023-05-07T23:35:59.628Z,75.63
2023-05-07T23:38:27.162Z,75.40
2023-05-07T23:40:54.657Z,75.59
2023-05-07T23:43:23.696Z,75.38
2023-05-07T23:45:51.402Z,75.01
2023-05-07T23:48:18.957Z,75.06
2023-05-07T23:50:46.444Z,75.50
2023-05-07T23:53:13.950Z,75.25
2023-05-07T23:55:41.443Z,75.41
2023-05-07T23:58:08.906Z,75.78
